Disclaimer

Please do not use the information listed here in-flight or in-navigation, as they are not provided to us by the airports but are provided by volunteers, so they might be outdated.

Search


Regions


Airport information page

Radio informations:
Tower (TWR) - 118.7 MHz
Ground (GND) - 121.9 MHz
Automatic Terminal Information Service (ATIS) - 126.8 MHz
RADAR - 121.3 MHz

Airport informations:
Latitude: 04° 56' 39.12" N
Longitude: 114° 55' 42.07" E
Elevation: 73 feet - 22 meters
Operating hours: Remarks
Operating agency: Civil government, landing fees and diplomatic clearance may be required
Timezone: UTC+8
Fuel: Jet A1, without icing nhibitor.

100/130 octane gasoline, leaded, MIL-L-5572F (GREEN)

Runway information:
03/21 - 12000 x 150 feet< - >3658 x 46 meters

Recent METARs:
WBSB 171930Z 13003KT 9999 -RA FEW003 BKN150 24/23 Q1011 NOSIG
WBSB 172000Z 15005KT 9999 -RA FEW003 BKN150 24/23 Q1011 NOSIG
WBSB 172030Z 23005KT 9999 -RA FEW003 BKN150 24/23 Q1012 NOSIG

Airport on the map: